Time;durP1;ratioP1;P1;durP2;ratioP2;P2;SDS_P1;SDS_P2;PMS_P1;PMS_P2;Temp;Humidity;BMP_temperature;BMP_pressure;BME280_temperature;BME280_humidity;BME280_pressure;Samples;Min_cycle;Max_cycle;Signal;HPM_P1;HPM_P2
2022/04/02 00:00:12;;;;;;;;;3.25;3.00;;;;;19.04;30.76;100880.13;4975783;28;45299;-63
2022/04/02 00:02:38;;;;;;;;;3.25;2.50;;;;;19.04;30.89;100890.63;4974953;28;45398;-61
2022/04/02 00:05:03;;;;;;;;;2.50;2.50;;;;;19.05;30.62;100892.34;4975210;28;45886;-63
2022/04/02 00:07:29;;;;;;;;;2.25;2.25;;;;;19.04;30.89;100893.25;4975208;28;45830;-64
2022/04/02 00:09:54;;;;;;;;;5.25;3.00;;;;;19.02;30.79;100892.47;4975244;28;45816;-62
2022/04/02 00:12:19;;;;;;;;;3.00;3.00;;;;;19.02;30.80;100902.97;4974838;28;45282;-63
2022/04/02 00:14:46;;;;;;;;;3.00;3.00;;;;;19.03;30.83;100893.34;4974928;28;45355;-63
2022/04/02 00:17:11;;;;;;;;;3.75;3.25;;;;;19.02;30.85;100899.53;4973823;28;45427;-63
2022/04/02 00:19:37;;;;;;;;;4.00;4.00;;;;;19.03;30.83;100890.72;4975258;28;45329;-62
2022/04/02 00:22:03;;;;;;;;;2.00;2.00;;;;;19.03;30.76;100898.59;4974716;28;46958;-62
2022/04/02 00:24:28;;;;;;;;;3.00;3.00;;;;;19.00;30.93;100910.09;4975079;28;45536;-63
2022/04/02 00:26:54;;;;;;;;;3.00;3.00;;;;;19.00;31.01;100896.97;4973885;28;45373;-63
2022/04/02 00:29:19;;;;;;;;;4.00;3.50;;;;;19.01;30.79;100898.69;4975085;28;45380;-62
2022/04/02 00:31:44;;;;;;;;;3.00;3.00;;;;;19.00;30.75;100899.59;4975098;28;46151;-63
2022/04/02 00:34:10;;;;;;;;;5.00;2.00;;;;;18.98;30.95;100902.28;4974689;28;45342;-63
2022/04/02 00:36:38;;;;;;;;;4.25;4.25;;;;;18.98;30.78;100897.03;4974888;28;45495;-63
2022/04/02 00:39:05;;;;;;;;;3.75;3.00;;;;;18.99;30.80;100904.00;4975125;28;45523;-62
2022/04/02 00:41:30;;;;;;;;;3.00;3.00;;;;;18.98;30.79;100896.19;4974669;28;45704;-64
2022/04/02 00:44:01;;;;;;;;;3.00;3.00;;;;;18.97;30.55;100890.06;4974756;28;45715;-63
2022/04/02 00:46:27;;;;;;;;;4.75;4.00;;;;;18.97;30.68;100902.38;4974680;28;45441;-64
2022/04/02 00:48:54;;;;;;;;;2.00;2.00;;;;;18.96;30.57;100896.25;4974955;28;45450;-63
2022/04/02 00:51:20;;;;;;;;;1.25;1.25;;;;;18.96;30.76;100887.53;4974620;28;47233;-62
2022/04/02 00:53:48;;;;;;;;;2.00;2.00;;;;;18.94;30.76;100895.50;4974663;28;45703;-64
2022/04/02 00:56:14;;;;;;;;;2.00;2.00;;;;;18.96;30.54;100884.91;4974837;28;45480;-63
2022/04/02 00:58:39;;;;;;;;;4.25;2.00;;;;;18.94;30.64;100892.00;4974817;28;45579;-63
2022/04/02 01:01:06;;;;;;;;;2.25;2.25;;;;;18.94;30.67;100881.50;4974255;28;45433;-64
2022/04/02 01:03:32;;;;;;;;;2.00;2.00;;;;;18.91;30.53;100884.22;4974583;28;45318;-62
2022/04/02 01:05:57;;;;;;;;;3.00;2.00;;;;;18.92;30.83;100886.81;4974515;28;45439;-62
2022/04/02 01:08:22;;;;;;;;;2.00;1.00;;;;;18.92;30.65;100891.19;4974617;28;45421;-63
2022/04/02 01:10:48;;;;;;;;;2.50;2.50;;;;;18.92;30.49;100884.19;4974180;28;46472;-63
2022/04/02 01:13:15;;;;;;;;;2.00;2.00;;;;;18.91;30.75;100886.84;4974642;28;45382;-63
2022/04/02 01:15:41;;;;;;;;;2.25;2.25;;;;;18.90;30.54;100891.28;4974499;28;45366;-64
2022/04/02 01:18:07;;;;;;;;;2.00;2.00;;;;;18.91;30.47;100886.84;4974325;28;45287;-63
2022/04/02 01:20:33;;;;;;;;;2.00;2.00;;;;;18.90;30.38;100887.81;4972844;28;48471;-64
2022/04/02 01:22:59;;;;;;;;;2.00;2.00;;;;;18.89;30.74;100879.06;4974231;28;45425;-63
2022/04/02 01:25:31;;;;;;;;;3.00;2.00;;;;;18.89;30.54;100872.97;4972947;28;45438;-62
2022/04/02 01:27:57;;;;;;;;;1.00;1.00;;;;;18.89;30.33;100886.94;4974409;28;45402;-63
2022/04/02 01:30:23;;;;;;;;;3.00;3.00;;;;;18.87;30.54;100883.53;4974112;28;45700;-64
2022/04/02 01:32:48;;;;;;;;;3.25;2.25;;;;;18.87;30.62;100880.91;4974271;28;45280;-64
2022/04/02 01:35:14;;;;;;;;;3.00;3.00;;;;;18.88;30.41;100889.66;4973331;28;45372;-65
2022/04/02 01:37:39;;;;;;;;;2.25;2.00;;;;;18.87;30.45;100890.56;4972811;28;45642;-64
2022/04/02 01:40:06;;;;;;;;;3.25;2.00;;;;;18.87;30.15;100888.78;4973993;28;46417;-64
2022/04/02 01:42:32;;;;;;;;;2.00;2.00;;;;;18.84;30.54;100887.16;4972742;28;45687;-64
2022/04/02 01:44:59;;;;;;;;;3.50;2.00;;;;;18.83;30.30;100890.69;4974143;28;45410;-64
2022/04/02 01:47:24;;;;;;;;;2.25;2.25;;;;;18.83;30.22;100888.06;4974467;28;45335;-64
2022/04/02 01:49:50;;;;;;;;;3.00;3.00;;;;;18.84;30.47;100904.69;4973976;28;46559;-64
2022/04/02 01:52:17;;;;;;;;;2.00;2.00;;;;;18.83;30.41;100901.22;4973993;28;45367;-63
2022/04/02 01:54:44;;;;;;;;;1.75;1.75;;;;;18.83;30.22;100898.59;4973887;28;45382;-63
2022/04/02 01:57:10;;;;;;;;;1.00;1.00;;;;;18.83;30.30;100903.84;4972820;28;45478;-64
2022/04/02 01:59:36;;;;;;;;;4.25;2.00;;;;;18.83;30.36;100908.25;4973629;28;45399;-64
2022/04/02 02:02:01;;;;;;;;;1.25;1.25;;;;;18.83;30.39;100910.88;4973570;28;45509;-65
2022/04/02 02:04:27;;;;;;;;;1.00;1.00;;;;;18.81;30.17;100897.81;4973835;28;45457;-64
2022/04/02 02:06:53;;;;;;;;;2.00;2.00;;;;;18.82;30.17;100906.53;4973823;28;45487;-65
2022/04/02 02:09:18;;;;;;;;;1.75;1.25;;;;;18.81;30.11;100917.97;4973695;28;46047;-63
2022/04/02 02:11:44;;;;;;;;;2.00;1.00;;;;;18.80;30.04;100919.72;4973599;28;45350;-65
2022/04/02 02:14:09;;;;;;;;;2.00;2.00;;;;;18.80;30.29;100929.38;4972081;28;45518;-62
2022/04/02 02:16:34;;;;;;;;;1.00;1.00;;;;;18.79;30.00;100922.44;4973906;28;45699;-61
2022/04/02 02:19:00;;;;;;;;;1.00;1.00;;;;;18.80;30.01;100918.88;4973177;28;46002;-62
2022/04/02 02:21:25;;;;;;;;;2.00;2.00;;;;;18.78;29.95;100926.84;4973351;28;45299;-64
2022/04/02 02:23:51;;;;;;;;;1.00;1.00;;;;;18.78;30.29;100918.97;4973793;28;45487;-64
2022/04/02 02:26:17;;;;;;;;;2.00;2.00;;;;;18.78;29.88;100921.59;4974025;28;45510;-64
2022/04/02 02:28:43;;;;;;;;;2.00;2.00;;;;;18.77;29.94;100908.53;4971811;28;47500;-64
2022/04/02 02:31:08;;;;;;;;;1.75;1.50;;;;;18.76;29.95;100909.44;4973332;28;45895;-62
2022/04/02 02:36:18;;;;;;;;;1.00;1.00;;;;;18.76;30.10;100917.31;4973745;28;45470;-63
2022/04/02 02:38:44;;;;;;;;;1.00;1.00;;;;;18.75;30.04;100913.84;4971784;28;48087;-61
2022/04/02 02:41:10;;;;;;;;;2.25;1.00;;;;;18.75;29.79;100919.09;4972993;28;45449;-65
2022/04/02 02:43:37;;;;;;;;;1.00;1.00;;;;;18.74;29.90;100925.28;4971724;28;45432;-64
2022/04/02 02:46:02;;;;;;;;;1.25;1.25;;;;;18.74;29.98;100927.91;4973428;28;45411;-63
2022/04/02 02:48:28;;;;;;;;;2.00;2.00;;;;;18.73;30.04;100931.44;4972804;28;46347;-65
2022/04/02 02:50:53;;;;;;;;;1.50;1.50;;;;;18.75;30.03;100941.88;4974477;28;45334;-64
2022/04/02 02:53:19;;;;;;;;;1.25;1.00;;;;;18.74;30.09;100935.78;4976533;28;45423;-65
2022/04/02 02:55:44;;;;;;;;;1.75;1.75;;;;;18.73;30.21;100941.94;4974875;28;45283;-64
2022/04/02 02:58:10;;;;;;;;;2.25;1.25;;;;;18.74;30.09;100940.19;4975979;28;46306;-64
2022/04/02 03:00:36;;;;;;;;;1.75;1.00;;;;;18.72;30.10;100937.63;4975991;28;45197;-64
2022/04/02 03:03:01;;;;;;;;;1.00;1.00;;;;;18.72;30.14;100945.50;4976062;28;45307;-65
2022/04/02 03:05:27;;;;;;;;;1.00;1.00;;;;;18.72;30.06;100945.50;4976172;28;45360;-63
2022/04/02 03:07:52;;;;;;;;;1.00;1.00;;;;;18.71;30.03;100949.03;4974705;28;46266;-64
2022/04/02 03:10:19;;;;;;;;;1.75;1.75;;;;;18.71;29.64;100951.66;4975770;28;45251;-62
2022/04/02 03:12:47;;;;;;;;;1.00;1.00;;;;;18.70;29.88;100955.22;4975831;28;45309;-64
2022/04/02 03:15:13;;;;;;;;;1.00;1.00;;;;;18.69;29.94;100948.25;4975977;28;45399;-64
2022/04/02 03:17:39;;;;;;;;;1.00;1.00;;;;;18.68;29.53;100957.91;4975442;28;47053;-65
2022/04/02 03:20:06;;;;;;;;;1.00;1.00;;;;;18.68;29.76;100957.91;4975661;28;45308;-65
2022/04/02 03:22:39;;;;;;;;;1.00;1.00;;;;;18.69;29.81;100958.75;4975878;28;45370;-64
2022/04/02 03:25:11;;;;;;;;;1.00;1.00;;;;;18.68;29.85;100954.44;4975322;28;45577;-64
2022/04/02 03:27:38;;;;;;;;;1.00;0.75;;;;;18.68;29.95;100962.31;4975431;28;46488;-64
2022/04/02 03:30:11;;;;;;;;;1.50;1.50;;;;;18.67;29.85;100958.00;4975542;28;45527;-63
2022/04/02 03:32:38;;;;;;;;;2.00;1.00;;;;;18.67;29.95;100955.38;4975657;28;45430;-63
2022/04/02 03:35:04;;;;;;;;;3.00;1.25;;;;;18.68;29.88;100949.19;4975768;28;45231;-62
2022/04/02 03:37:31;;;;;;;;;0.75;0.75;;;;;18.67;29.69;100963.25;4975427;28;47463;-63
2022/04/02 03:39:57;;;;;;;;;1.00;1.00;;;;;18.66;29.80;100964.16;4975395;28;45235;-63
2022/04/02 03:42:23;;;;;;;;;1.00;1.00;;;;;18.65;29.63;100967.72;4975896;28;45362;-63
2022/04/02 03:44:49;;;;;;;;;2.00;2.00;;;;;18.65;29.74;100972.97;4975594;28;45398;-64
2022/04/02 03:47:15;;;;;;;;;1.00;1.00;;;;;18.65;29.66;100959.84;4975266;28;45474;-62
2022/04/02 03:49:44;;;;;;;;;1.50;1.50;;;;;18.65;29.62;100967.72;4975367;28;45474;-63
2022/04/02 03:52:10;;;;;;;;;1.00;1.00;;;;;18.65;30.00;100963.28;4975346;28;45189;-63
2022/04/02 03:54:36;;;;;;;;;1.75;1.75;;;;;18.64;29.73;100968.63;4975560;28;45636;-64
2022/04/02 03:57:03;;;;;;;;;2.25;1.25;;;;;18.63;30.04;100965.13;4975125;28;45371;-63
2022/04/02 03:59:30;;;;;;;;;2.50;2.00;;;;;18.63;29.83;100961.66;4975239;28;45531;-64
2022/04/02 04:01:56;;;;;;;;;1.00;1.00;;;;;18.63;29.83;100964.28;4975452;28;45397;-62
2022/04/02 04:04:22;;;;;;;;;2.00;2.00;;;;;18.62;29.64;100971.34;4975807;28;45614;-64
2022/04/02 04:06:48;;;;;;;;;1.00;0.50;;;;;18.61;29.99;100966.13;4974959;28;46238;-62
2022/04/02 04:09:13;;;;;;;;;1.25;1.25;;;;;18.62;29.73;100967.84;4975153;28;45292;-64
2022/04/02 04:11:39;;;;;;;;;0.25;0.00;;;;;18.62;29.84;100967.84;4975293;28;45260;-63
2022/04/02 04:14:04;;;;;;;;;1.75;1.75;;;;;18.61;29.71;100977.50;4975363;28;45469;-62
2022/04/02 04:16:30;;;;;;;;;1.75;1.00;;;;;18.60;29.77;100973.16;4974742;28;46535;-62
2022/04/02 04:18:55;;;;;;;;;1.00;1.00;;;;;18.59;29.45;100979.34;4975058;28;45254;-63
2022/04/02 04:21:20;;;;;;;;;2.75;2.00;;;;;18.60;29.58;100977.56;4973763;28;45201;-63
2022/04/02 04:23:45;;;;;;;;;1.50;1.00;;;;;18.59;29.78;100989.84;4975214;28;45677;-62
2022/04/02 04:26:11;;;;;;;;;2.00;0.00;;;;;18.59;29.43;100981.09;4973432;28;48051;-62
2022/04/02 04:28:37;;;;;;;;;0.00;0.00;;;;;18.59;29.59;100991.59;4974826;28;45311;-62
2022/04/02 04:31:02;;;;;;;;;1.50;1.00;;;;;18.58;29.61;100990.75;4975223;28;45723;-63
2022/04/02 04:33:28;;;;;;;;;1.00;1.00;;;;;18.58;29.49;100996.00;4975080;28;45291;-63
2022/04/02 04:35:53;;;;;;;;;2.25;1.00;;;;;18.57;29.56;100996.91;4974965;28;46072;-64
2022/04/02 04:38:18;;;;;;;;;1.00;1.00;;;;;18.58;29.43;101003.00;4974687;28;45441;-64
2022/04/02 04:40:44;;;;;;;;;4.50;1.75;;;;;18.58;29.51;101013.50;4974601;28;45268;-65
2022/04/02 04:43:09;;;;;;;;;0.50;0.00;;;;;18.57;29.55;101011.84;4974911;28;45605;-65
2022/04/02 04:45:34;;;;;;;;;1.50;1.50;;;;;18.56;29.36;101010.13;4974509;28;45441;-64
2022/04/02 04:48:00;;;;;;;;;1.00;0.00;;;;;18.56;29.51;101010.97;4974656;28;45261;-64
2022/04/02 04:50:26;;;;;;;;;1.00;1.00;;;;;18.54;29.52;101016.28;4975014;28;45426;-64
2022/04/02 04:52:52;;;;;;;;;2.00;2.00;;;;;18.53;29.60;101014.59;4974717;28;45635;-64
2022/04/02 04:55:18;;;;;;;;;2.50;0.50;;;;;18.54;29.65;101016.28;4974456;28;46164;-65
2022/04/02 04:57:47;;;;;;;;;1.00;1.00;;;;;18.53;29.61;101022.47;4974465;28;45225;-64
2022/04/02 05:00:15;;;;;;;;;1.00;0.50;;;;;18.53;29.57;101022.47;4974666;28;45204;-65
2022/04/02 05:02:40;;;;;;;;;0.00;0.00;;;;;18.53;29.52;101027.72;4974734;28;45357;-65
2022/04/02 05:05:06;;;;;;;;;1.00;1.00;;;;;18.53;29.45;101035.59;4974319;28;45534;-65
2022/04/02 05:07:31;;;;;;;;;1.00;1.00;;;;;18.52;29.42;101030.41;4974384;28;45391;-65
2022/04/02 05:09:57;;;;;;;;;3.00;1.00;;;;;18.51;29.71;101037.41;4974785;28;45297;-64
2022/04/02 05:12:22;;;;;;;;;2.00;0.00;;;;;18.51;29.53;101039.19;4974103;28;45590;-64
2022/04/02 05:14:49;;;;;;;;;2.50;1.00;;;;;18.50;29.57;101040.97;4974071;28;46045;-64
2022/04/02 05:17:19;;;;;;;;;2.00;0.25;;;;;18.50;29.45;101033.09;4974346;28;45820;-66
2022/04/02 05:19:45;;;;;;;;;3.00;1.00;;;;;18.50;29.44;101048.84;4974520;28;45321;-64
2022/04/02 05:22:11;;;;;;;;;1.00;1.00;;;;;18.49;29.47;101041.03;4974499;28;45552;-64
2022/04/02 05:24:37;;;;;;;;;1.25;1.25;;;;;18.49;29.61;101057.63;4974142;28;46265;-62
2022/04/02 05:27:03;;;;;;;;;1.00;1.00;;;;;18.48;29.73;101045.41;4974012;28;45480;-64
2022/04/02 05:29:29;;;;;;;;;0.75;0.75;;;;;18.49;29.55;101046.28;4974667;28;45244;-62
2022/04/02 05:31:55;;;;;;;;;1.00;1.00;;;;;18.48;29.69;101052.44;4974308;28;45327;-63
2022/04/02 05:34:20;;;;;;;;;2.00;1.00;;;;;18.48;29.49;101055.06;4973940;28;46121;-63
2022/04/02 05:36:46;;;;;;;;;0.50;0.50;;;;;18.47;29.57;101059.44;4974105;28;45459;-64
2022/04/02 05:39:11;;;;;;;;;0.75;0.75;;;;;18.47;29.62;101059.44;4974054;28;45185;-65
2022/04/02 05:41:37;;;;;;;;;1.00;1.00;;;;;18.46;29.55;101057.78;4973977;28;45604;-64
2022/04/02 05:44:04;;;;;;;;;0.25;0.00;;;;;18.47;29.55;101061.25;4973925;28;47059;-62
2022/04/02 05:46:29;;;;;;;;;1.00;1.00;;;;;18.46;29.21;101060.41;4972985;28;45841;-62
2022/04/02 05:48:55;;;;;;;;;1.00;1.00;;;;;18.46;29.49;101065.66;4974106;28;45387;-62
2022/04/02 05:51:20;;;;;;;;;1.00;1.00;;;;;18.45;29.31;101069.19;4974157;28;45412;-62
2022/04/02 05:53:45;;;;;;;;;1.00;1.00;;;;;18.43;29.48;101068.41;4973612;28;45673;-63
2022/04/02 05:56:11;;;;;;;;;1.00;1.00;;;;;18.45;29.46;101068.31;4972515;28;45418;-62
2022/04/02 05:58:37;;;;;;;;;0.50;0.50;;;;;18.45;29.43;101074.44;4973969;28;45374;-63
2022/04/02 06:01:03;;;;;;;;;1.00;1.00;;;;;18.45;29.43;101081.44;4974017;28;45545;-63
2022/04/02 06:03:29;;;;;;;;;1.50;1.00;;;;;18.44;29.46;101093.72;4973780;28;45469;-65
2022/04/02 06:05:54;;;;;;;;;0.00;0.00;;;;;18.45;29.58;101091.94;4973615;28;45319;-64
2022/04/02 06:08:20;;;;;;;;;1.00;1.00;;;;;18.43;29.36;101091.16;4973839;28;45485;-64
2022/04/02 06:10:45;;;;;;;;;0.25;0.25;;;;;18.44;29.36;101101.59;4973729;28;45454;-62
2022/04/02 06:13:14;;;;;;;;;1.00;1.00;;;;;18.44;29.44;101091.09;4973522;28;46221;-62
2022/04/02 06:15:40;;;;;;;;;1.50;0.25;;;;;18.44;29.17;101098.97;4973851;28;45541;-65
2022/04/02 06:18:07;;;;;;;;;0.00;0.00;;;;;18.43;29.47;101099.88;4973558;28;45848;-63
2022/04/02 06:20:32;;;;;;;;;0.75;0.00;;;;;18.43;29.35;101105.13;4974014;28;45446;-65
2022/04/02 06:22:59;;;;;;;;;0.00;0.00;;;;;18.43;29.34;101102.50;4973777;28;45425;-65
2022/04/02 06:25:24;;;;;;;;;1.00;1.00;;;;;18.44;29.47;101105.97;4973042;28;45266;-65
2022/04/02 06:27:49;;;;;;;;;1.00;1.00;;;;;18.43;29.33;101107.75;4976674;28;45415;-64
2022/04/02 06:30:18;;;;;;;;;1.75;0.75;;;;;18.44;29.24;101117.34;4976527;28;45405;-64
2022/04/02 06:32:44;;;;;;;;;1.00;0.25;;;;;18.43;29.33;101115.63;4976003;28;46783;-65
2022/04/02 06:35:10;;;;;;;;;1.00;1.00;;;;;18.42;29.35;101113.94;4976290;28;45327;-65
2022/04/02 06:37:39;;;;;;;;;1.00;1.00;;;;;18.43;29.24;101115.63;4976346;28;45360;-65
2022/04/02 06:40:06;;;;;;;;;2.00;0.00;;;;;18.44;29.07;101119.09;4976532;28;45243;-63
2022/04/02 06:42:32;;;;;;;;;0.75;0.75;;;;;18.44;29.47;101126.97;4976493;28;46183;-63
2022/04/02 06:44:57;;;;;;;;;0.00;0.00;;;;;18.44;29.10;101127.84;4976225;28;45433;-64
2022/04/02 06:47:27;;;;;;;;;0.00;0.00;;;;;18.44;29.18;101133.09;4976298;28;45312;-64
2022/04/02 06:49:53;;;;;;;;;1.00;1.00;;;;;18.44;29.34;101130.47;4975374;28;45561;-65
2022/04/02 06:52:18;;;;;;;;;1.00;1.00;;;;;18.43;29.14;101131.38;4975940;28;46277;-65
2022/04/02 06:54:44;;;;;;;;;1.75;1.00;;;;;18.42;29.51;101132.31;4976359;28;45361;-65
2022/04/02 06:57:09;;;;;;;;;1.00;1.00;;;;;18.42;29.33;101142.78;4976221;28;45272;-65
2022/04/02 06:59:34;;;;;;;;;1.00;1.00;;;;;18.44;29.54;101142.72;4975399;28;45960;-65
2022/04/02 07:02:01;;;;;;;;;0.00;0.00;;;;;18.44;29.31;101143.59;4976319;28;45259;-64
2022/04/02 07:04:27;;;;;;;;;0.25;0.25;;;;;18.43;29.04;101139.25;4975887;28;45289;-65
2022/04/02 07:06:52;;;;;;;;;0.00;0.00;;;;;18.44;29.42;101151.47;4975956;28;45379;-65
2022/04/02 07:09:18;;;;;;;;;1.00;1.00;;;;;18.43;29.21;101157.63;4976094;28;45246;-65
2022/04/02 07:11:43;;;;;;;;;2.00;1.00;;;;;18.44;29.10;101148.84;4976263;28;47035;-64
2022/04/02 07:14:09;;;;;;;;;1.00;1.00;;;;;18.44;29.17;101159.34;4975653;28;45446;-65
2022/04/02 07:16:36;;;;;;;;;1.00;1.00;;;;;18.45;29.27;101154.94;4976156;28;45496;-65
2022/04/02 07:19:01;;;;;;;;;0.00;0.00;;;;;18.44;29.27;101151.47;4975207;28;45254;-65
2022/04/02 07:21:28;;;;;;;;;1.00;1.00;;;;;18.44;29.26;101164.59;4973629;28;46391;-65
2022/04/02 07:23:55;;;;;;;;;1.00;1.00;;;;;18.44;29.18;101159.34;4974715;28;45216;-65
2022/04/02 07:26:22;;;;;;;;;1.25;1.25;;;;;18.45;29.17;101163.69;4974930;28;45287;-65
2022/04/02 07:28:47;;;;;;;;;1.00;1.00;;;;;18.44;29.09;101169.84;4974920;28;45527;-65
2022/04/02 07:31:13;;;;;;;;;0.00;0.00;;;;;18.45;29.20;101174.16;4973389;28;48309;-64
2022/04/02 07:33:38;;;;;;;;;0.75;0.50;;;;;18.45;29.27;101171.53;4974462;28;45261;-65
2022/04/02 07:36:08;;;;;;;;;1.00;1.00;;;;;18.46;29.28;101170.63;4974462;28;45461;-64
2022/04/02 07:38:50;;;;;;;;;1.25;0.50;;;;;18.45;29.11;101175.94;4975116;28;45291;-64
2022/04/02 07:41:25;;;;;;;;;1.00;1.00;;;;;18.47;29.20;101180.19;4974408;28;45687;-65
2022/04/02 07:43:52;;;;;;;;;1.00;1.00;;;;;18.46;29.29;101173.25;4974422;28;45801;-63
2022/04/02 07:46:20;;;;;;;;;3.50;0.25;;;;;18.46;29.22;101183.75;4974303;28;45402;-65
2022/04/02 07:48:48;;;;;;;;;2.00;1.00;;;;;18.47;29.09;101179.34;4972628;28;45668;-64
2022/04/02 07:51:16;;;;;;;;;1.00;1.00;;;;;18.47;28.79;101176.72;4974103;28;46940;-63
2022/04/02 07:53:45;;;;;;;;;3.00;1.00;;;;;18.46;29.26;101183.75;4974139;28;45838;-65
2022/04/02 07:56:14;;;;;;;;;1.25;1.00;;;;;18.46;29.04;101188.13;4974189;28;45255;-63
2022/04/02 07:58:45;;;;;;;;;1.25;1.25;;;;;18.46;29.15;101180.25;4973099;28;45402;-64
2022/04/02 08:01:14;;;;;;;;;1.00;1.00;;;;;18.47;29.46;101190.69;4974067;28;46014;-62
2022/04/02 08:03:43;;;;;;;;;3.00;1.75;;;;;18.47;29.08;101184.59;4972704;28;46323;-65
2022/04/02 08:06:09;;;;;;;;;2.25;1.25;;;;;18.48;29.15;101192.41;4974504;28;45342;-63
2022/04/02 08:08:36;;;;;;;;;1.00;1.00;;;;;18.48;29.12;101192.41;4974624;28;45178;-64
2022/04/02 08:11:02;;;;;;;;;1.00;1.00;;;;;18.48;29.25;101189.78;4973897;28;46234;-63
2022/04/02 08:13:29;;;;;;;;;3.50;2.00;;;;;18.48;29.24;101192.41;4972491;28;45270;-65
2022/04/02 08:15:57;;;;;;;;;2.00;2.00;;;;;18.49;29.08;101198.53;4973945;28;45402;-63
2022/04/02 08:18:26;;;;;;;;;0.50;0.50;;;;;18.49;28.99;101188.84;4930865;28;1267961;-64
2022/04/02 08:20:52;;;;;;;;;1.00;1.00;;;;;18.49;29.32;101199.34;4973606;28;46362;-63
2022/04/02 08:23:18;;;;;;;;;1.00;1.00;;;;;18.49;29.07;101199.34;4974985;28;45258;-64
2022/04/02 08:25:55;;;;;;;;;2.25;1.00;;;;;18.50;29.00;101202.84;4975125;28;45262;-65
2022/04/02 08:28:40;;;;;;;;;1.00;1.00;;;;;18.49;29.26;101207.22;4975330;28;45334;-66
2022/04/02 08:31:17;;;;;;;;;1.00;1.00;;;;;18.49;29.24;101201.97;4973610;28;48177;-65
2022/04/02 08:33:54;;;;;;;;;1.00;1.00;;;;;18.50;28.97;101201.06;4974813;28;45336;-64
2022/04/02 08:36:26;;;;;;;;;0.25;0.25;;;;;18.51;29.01;101217.69;4975256;28;45369;-65
2022/04/02 08:38:58;;;;;;;;;4.00;1.00;;;;;18.51;29.24;101202.78;4975057;28;45441;-65
2022/04/02 08:41:53;;;;;;;;;1.00;0.25;;;;;18.50;29.08;101211.56;4974738;28;45633;-65
2022/04/02 08:44:52;;;;;;;;;1.00;1.00;;;;;18.51;29.24;101213.28;4974865;28;45185;-66
2022/04/02 08:47:29;;;;;;;;;1.00;1.00;;;;;18.52;28.72;101215.00;4974119;28;45370;-65
2022/04/02 08:50:11;;;;;;;;;1.00;1.00;;;;;18.52;29.07;101215.00;4973620;28;45590;-64
2022/04/02 08:52:54;;;;;;;;;3.00;1.00;;;;;18.53;29.03;101210.59;4974753;28;46382;-66
2022/04/02 08:55:34;;;;;;;;;1.00;1.00;;;;;18.54;29.03;101209.66;4974535;28;45457;-65
2022/04/02 08:58:31;;;;;;;;;1.00;1.00;;;;;18.53;28.96;101211.44;4977436;28;45255;-65
2022/04/02 09:01:10;;;;;;;;;0.00;0.00;;;;;18.54;29.05;101218.41;5010193;28;45398;-65
2022/04/02 09:03:58;;;;;;;;;1.00;1.00;;;;;18.54;29.07;101221.03;4974588;28;45318;-66
2022/04/02 09:06:38;;;;;;;;;1.25;1.25;;;;;18.54;28.97;101228.03;4974463;28;45441;-66
2022/04/02 09:09:08;;;;;;;;;1.75;0.75;;;;;18.54;29.03;101223.66;4974853;28;45185;-66
2022/04/02 09:11:53;;;;;;;;;3.00;1.00;;;;;18.56;28.86;101225.38;4974826;28;45423;-65
2022/04/02 09:14:30;;;;;;;;;0.25;0.25;;;;;18.55;28.99;101224.50;4974348;28;46039;-66
2022/04/02 09:17:30;;;;;;;;;1.00;1.00;;;;;18.56;29.03;101225.38;4975398;28;45390;-65
2022/04/02 09:20:12;;;;;;;;;1.00;1.00;;;;;18.56;29.10;101222.75;4973044;28;45438;-66
2022/04/02 09:23:07;;;;;;;;;0.25;0.25;;;;;18.56;29.04;101220.97;4974817;28;45223;-65
2022/04/02 09:25:41;;;;;;;;;1.25;1.25;;;;;18.56;28.79;101251.63;4974070;28;45255;-65
2022/04/02 09:28:38;;;;;;;;;0.00;0.00;;;;;18.57;28.93;101232.34;4973044;28;45225;-66
2022/04/02 09:31:41;;;;;;;;;0.00;0.00;;;;;18.56;29.09;101225.38;4974451;28;45170;-66
2022/04/02 09:34:28;;;;;;;;;0.75;0.50;;;;;18.58;28.94;101231.38;4974554;28;45341;-66
2022/04/02 09:37:28;;;;;;;;;1.00;1.00;;;;;18.57;28.79;101229.72;4972488;28;47147;-63
2022/04/02 09:40:08;;;;;;;;;0.50;0.50;;;;;18.57;28.77;101227.09;4973914;28;45435;-64
2022/04/02 09:42:37;;;;;;;;;1.00;1.00;;;;;18.58;28.85;101228.75;4973790;28;45372;-65
2022/04/02 09:45:09;;;;;;;;;0.50;0.50;;;;;18.56;28.98;101225.38;4974378;28;45925;-66
2022/04/02 09:47:55;;;;;;;;;1.00;1.00;;;;;18.58;29.05;101234.88;4973632;28;46230;-65
2022/04/02 09:50:23;;;;;;;;;3.00;1.00;;;;;18.58;29.10;101244.50;4973931;28;45342;-65
2022/04/02 09:52:59;;;;;;;;;2.50;0.75;;;;;18.59;28.77;101243.59;4973789;28;45410;-65
2022/04/02 09:55:30;;;;;;;;;2.00;0.00;;;;;18.57;28.78;101237.59;4972843;28;45306;-66
2022/04/02 09:58:23;;;;;;;;;1.50;1.00;;;;;18.60;28.76;101234.81;4973657;28;45998;-66
2022/04/02 10:01:02;;;;;;;;;1.00;0.50;;;;;18.60;28.63;101232.19;4973539;28;45331;-65
2022/04/02 10:04:00;;;;;;;;;1.00;1.00;;;;;18.59;28.77;101247.09;4973712;28;45277;-65
2022/04/02 10:06:48;;;;;;;;;1.50;0.75;;;;;18.59;28.72;101231.34;4989529;28;45365;-65
2022/04/02 10:09:15;;;;;;;;;1.00;1.00;;;;;18.59;29.07;101233.09;4973782;28;46244;-62
2022/04/02 10:11:54;;;;;;;;;0.75;0.75;;;;;18.59;28.74;101244.47;4974090;28;45831;-65
2022/04/02 10:14:23;;;;;;;;;1.00;1.00;;;;;18.57;28.86;101232.34;4973477;28;45366;-66
2022/04/02 10:16:55;;;;;;;;;0.00;0.00;;;;;18.59;28.78;101256.72;4973572;28;45195;-66
2022/04/02 10:19:32;;;;;;;;;1.00;0.00;;;;;18.58;28.71;101241.88;4973436;28;46155;-66
2022/04/02 10:22:02;;;;;;;;;0.00;0.00;;;;;18.58;28.81;101248.00;4973561;28;45716;-66
2022/04/02 10:24:36;;;;;;;;;2.00;0.75;;;;;18.58;28.77;101239.25;4973490;28;45459;-64
2022/04/02 10:27:03;;;;;;;;;1.50;1.50;;;;;18.58;28.84;101245.38;4973521;28;45456;-65
2022/04/02 10:29:56;;;;;;;;;0.50;0.50;;;;;18.59;28.71;101239.22;4973141;28;45432;-65
2022/04/02 10:32:37;;;;;;;;;1.00;1.00;;;;;18.59;28.60;101246.22;4973141;28;45474;-66
2022/04/02 10:35:03;;;;;;;;;1.00;1.00;;;;;18.59;28.81;101246.22;4973424;28;45398;-66
2022/04/02 10:37:38;;;;;;;;;1.00;0.50;;;;;18.59;28.60;101231.34;4973491;28;45293;-65
2022/04/02 10:40:06;;;;;;;;;0.00;0.00;;;;;18.59;28.74;101240.97;4972959;28;46067;-66
2022/04/02 10:42:40;;;;;;;;;0.75;0.75;;;;;18.59;28.92;101243.59;4973191;28;45894;-65
2022/04/02 10:45:12;;;;;;;;;1.25;1.25;;;;;18.59;28.88;101240.97;4973169;28;45331;-66
2022/04/02 10:47:42;;;;;;;;;2.00;1.00;;;;;18.58;28.81;101240.13;4973379;28;45401;-66
2022/04/02 10:50:09;;;;;;;;;0.00;0.00;;;;;18.59;28.68;101235.72;4973118;28;45390;-65
2022/04/02 10:52:36;;;;;;;;;2.00;0.75;;;;;18.59;28.78;101230.47;4971646;28;45427;-65
2022/04/02 10:55:03;;;;;;;;;2.00;0.50;;;;;18.59;28.44;101238.34;4973101;28;45369;-65
2022/04/02 10:57:29;;;;;;;;;4.00;1.00;;;;;18.60;28.78;101234.81;4971897;28;45601;-65
2022/04/02 11:00:04;;;;;;;;;1.00;1.00;;;;;18.59;28.76;101225.22;4972868;28;45457;-65
2022/04/02 11:02:40;;;;;;;;;0.00;0.00;;;;;18.60;28.51;101232.19;4972773;28;45343;-66
2022/04/02 11:05:07;;;;;;;;;0.75;0.75;;;;;18.59;28.75;101240.97;4973012;28;45370;-65
2022/04/02 11:07:37;;;;;;;;;1.00;0.00;;;;;18.59;28.54;101226.09;4973014;28;45419;-66
2022/04/02 11:10:07;;;;;;;;;1.00;1.00;;;;;18.59;28.49;101233.97;4972669;28;45433;-65
2022/04/02 11:12:38;;;;;;;;;1.75;1.00;;;;;18.56;28.54;101236.72;4973948;28;45962;-63
2022/04/02 11:15:17;;;;;;;;;0.50;0.50;;;;;18.55;28.75;101229.75;4974824;28;45544;-65
2022/04/02 11:17:45;;;;;;;;;2.00;0.25;;;;;18.56;28.72;101231.47;4976186;28;45507;-66
2022/04/02 11:20:14;;;;;;;;;0.00;0.00;;;;;18.59;28.28;101233.09;4975820;28;45344;-65
2022/04/02 11:22:52;;;;;;;;;1.00;1.00;;;;;18.59;28.27;101235.72;4975813;28;45891;-64
2022/04/02 11:25:32;;;;;;;;;2.00;1.00;;;;;18.58;28.27;101220.88;4975825;28;45430;-64
2022/04/02 11:28:10;;;;;;;;;0.25;0.00;;;;;18.56;28.55;101241.13;4975656;28;45405;-64
2022/04/02 11:30:40;;;;;;;;;0.00;0.00;;;;;18.55;28.49;101235.00;4975598;28;45316;-65
2022/04/02 11:33:09;;;;;;;;;0.50;0.50;;;;;18.57;28.36;101224.47;4975481;28;45735;-66
2022/04/02 11:35:59;;;;;;;;;0.00;0.00;;;;;18.56;28.55;101238.50;4975734;28;45479;-65